Sellersville, Pennsylvania
Current Conditions -  °F | °C
As of 5:55 PM on Monday 22 Dec 2014 (Local Time) from KUKT Reporting Station
Overcast Overcast  
Wind Chill: 37°   Ceiling: 500
Heat Index: 37°   Visibility: 5mi
Dew Point: 36°   Wind: 3mph
Humidity: 93%   Direction: 60°ENE
Pressure: 30.2"   Gusts: NA
Location:  40.35°N, 75.3°W
Report Text: KUKT 222255Z AUTO 06003KT 5SM OVC005 03/02 A3020 RMK AO1
Loading
Personal Weather Stations






























Interactive Weather Map New forecast layout! Learn more

10-Day Weather Forecast

Advertisements
Track Severe Weather on mobile